createdAt,value
2023-01-25T00:06:33.499Z,77835.59
2023-01-25T00:16:39.978Z,77868.00
2023-01-25T00:26:44.630Z,77855.84
2023-01-25T00:36:46.624Z,77841.66
2023-01-25T00:46:51.209Z,77855.84
2023-01-25T00:56:56.703Z,77865.97
2023-01-25T01:06:58.972Z,77884.19
2023-01-25T01:17:06.177Z,77882.16
2023-01-25T01:27:10.959Z,77890.25
2023-01-25T01:37:13.135Z,77896.34
2023-01-25T01:47:27.166Z,77884.19
2023-01-25T01:57:49.476Z,77906.47
2023-01-25T02:07:58.751Z,77898.38
2023-01-25T02:18:03.821Z,77884.19
2023-01-25T02:28:28.694Z,77888.25
2023-01-25T02:38:35.500Z,77896.34
2023-01-25T02:48:37.900Z,77916.59
2023-01-25T02:58:41.112Z,77922.66
2023-01-25T03:08:43.516Z,77912.53
2023-01-25T03:18:48.148Z,77896.34
2023-01-25T03:28:50.909Z,77898.38
2023-01-25T03:38:55.365Z,77888.25
2023-01-25T03:49:02.425Z,77888.25
2023-01-25T03:59:06.817Z,77888.25
2023-01-25T04:09:10.175Z,77896.34
2023-01-25T04:19:18.451Z,77884.19
2023-01-25T04:29:28.766Z,77896.34
2023-01-25T04:39:41.915Z,77916.59
2023-01-25T04:49:46.793Z,77908.50
2023-01-25T04:59:52.423Z,77912.53
2023-01-25T05:09:58.409Z,77944.94
2023-01-25T05:20:03.921Z,77951.00
2023-01-25T05:30:08.857Z,77942.91
2023-01-25T05:40:21.878Z,77961.13
2023-01-25T05:50:28.264Z,77975.31
2023-01-25T06:00:41.098Z,77985.44
2023-01-25T06:10:47.773Z,77973.28
2023-01-25T06:20:52.190Z,77993.53
2023-01-25T06:31:16.587Z,77989.47
2023-01-25T06:41:20.233Z,78001.63
2023-01-25T06:51:22.302Z,77981.38
2023-01-25T07:01:30.746Z,77969.22
2023-01-25T07:11:37.979Z,77955.06
2023-01-25T07:21:47.559Z,77953.03
2023-01-25T07:31:52.078Z,77963.16
2023-01-25T07:41:56.524Z,77957.09
2023-01-25T07:52:07.165Z,77953.03
2023-01-25T08:02:12.623Z,77965.19
2023-01-25T08:12:17.679Z,77951.00
2023-01-25T08:22:19.711Z,77957.09
2023-01-25T08:32:21.847Z,77940.88
2023-01-25T08:42:28.912Z,77924.69
2023-01-25T08:52:33.543Z,77924.69
2023-01-25T09:02:37.873Z,77934.81
2023-01-25T09:12:42.474Z,77922.66
2023-01-25T09:22:46.925Z,77910.50
2023-01-25T09:32:52.145Z,77884.19
2023-01-25T10:06:40.615Z,77805.22
2023-01-25T10:16:49.251Z,77819.38
2023-01-25T10:26:57.343Z,77815.34
2023-01-25T10:37:05.580Z,77774.84
2023-01-25T10:47:35.765Z,77742.44
2023-01-25T10:57:44.153Z,77752.56
2023-01-25T11:07:46.874Z,77724.22
2023-01-25T11:18:11.733Z,77706.00
2023-01-25T11:28:23.395Z,77693.84
2023-01-25T11:38:25.929Z,77693.84
2023-01-25T11:48:54.121Z,77641.22
2023-01-25T11:59:02.291Z,77649.31
2023-01-25T12:09:21.371Z,77637.16
2023-01-25T12:19:40.891Z,77618.94
2023-01-25T12:29:57.868Z,77616.91
2023-01-25T12:40:35.105Z,77618.94
2023-01-25T12:50:47.068Z,77600.72
2023-01-25T13:01:27.845Z,77606.78
2023-01-25T13:11:36.111Z,77566.28
2023-01-25T13:21:41.872Z,77574.38
2023-01-25T13:31:51.839Z,77533.91
2023-01-25T13:42:27.511Z,77519.72
2023-01-25T13:52:31.374Z,77507.56
2023-01-25T14:02:36.020Z,77475.19
2023-01-25T14:12:43.509Z,77475.19
2023-01-25T14:22:49.533Z,77503.53
2023-01-25T14:33:15.875Z,77503.53
2023-01-25T14:43:18.230Z,77509.59
2023-01-25T14:53:22.541Z,77467.09
2023-01-25T15:03:26.939Z,77442.78
2023-01-25T15:13:29.528Z,77450.88
2023-01-25T15:23:31.635Z,77456.97
2023-01-25T15:33:34.535Z,77450.88
2023-01-25T15:43:37.109Z,77446.84
2023-01-25T15:53:39.645Z,77402.28
2023-01-25T16:03:41.926Z,77410.38
2023-01-25T16:13:46.385Z,77410.38
2023-01-25T16:23:50.969Z,77402.28
2023-01-25T16:33:58.700Z,77384.06
2023-01-25T16:44:03.340Z,77347.63
2023-01-25T16:54:15.737Z,77373.94
2023-01-25T17:04:23.578Z,77349.66
2023-01-25T17:14:35.525Z,77349.66
2023-01-25T17:24:45.339Z,77382.03
2023-01-25T17:34:52.660Z,77355.72
2023-01-25T17:44:56.830Z,77367.88
2023-01-25T17:55:02.071Z,77353.69
2023-01-25T18:05:05.235Z,77335.47
2023-01-25T18:15:12.777Z,77341.56
2023-01-25T18:25:42.555Z,77341.56
2023-01-25T18:35:48.015Z,77345.59
2023-01-25T18:46:01.860Z,77323.34
2023-01-25T18:56:10.885Z,77337.50
2023-01-25T19:06:15.963Z,77292.97
2023-01-25T19:16:28.897Z,77292.97
2023-01-25T19:26:34.834Z,77282.84
2023-01-25T19:36:39.040Z,77305.13
2023-01-25T19:46:47.098Z,77280.81
2023-01-25T19:56:52.011Z,77248.41
2023-01-25T20:06:59.683Z,77278.78
2023-01-25T20:17:03.067Z,77238.31
2023-01-25T20:27:07.658Z,77252.47
2023-01-25T20:37:11.312Z,77228.19
2023-01-25T20:47:18.667Z,77211.97
2023-01-25T20:57:23.325Z,77207.94
2023-01-25T21:07:25.668Z,77197.81
2023-01-25T21:17:32.598Z,77183.63
2023-01-25T21:27:38.971Z,77159.34
2023-01-25T21:37:46.364Z,77163.38
2023-01-25T21:47:52.015Z,77165.41
2023-01-25T21:57:54.178Z,77159.34
2023-01-25T22:08:01.234Z,77141.13
2023-01-25T22:18:03.460Z,77147.19
2023-01-25T22:28:15.972Z,77151.25
2023-01-25T22:38:20.495Z,77141.13
2023-01-25T22:48:27.729Z,77149.22
2023-01-25T22:58:38.117Z,77120.88
2023-01-25T23:08:47.607Z,77086.47
2023-01-25T23:18:52.071Z,77090.50
2023-01-25T23:28:58.132Z,77076.34
2023-01-25T23:39:01.606Z,77062.16
2023-01-25T23:49:04.352Z,77031.81
2023-01-25T23:59:08.929Z,77023.69
